createdAt,value
2018-12-16T00:00:02.101Z,55.37
2018-12-16T00:02:31.449Z,53.40
2018-12-16T00:04:59.990Z,62.10
2018-12-16T00:07:30.086Z,53.30
2018-12-16T00:10:00.244Z,58.43
2018-12-16T00:12:29.688Z,66.13
2018-12-16T00:14:58.174Z,58.07
2018-12-16T00:17:27.076Z,53.25
2018-12-16T00:19:56.149Z,59.17
2018-12-16T00:22:29.897Z,52.90
2018-12-16T00:24:57.587Z,58.17
2018-12-16T00:27:26.276Z,57.00
2018-12-16T00:29:55.521Z,59.23
2018-12-16T00:32:24.272Z,50.12
2018-12-16T00:34:54.994Z,60.43
2018-12-16T00:37:23.520Z,62.65
2018-12-16T00:39:52.401Z,61.63
2018-12-16T00:42:21.816Z,63.75
2018-12-16T00:44:50.297Z,61.20
2018-12-16T00:47:21.190Z,61.77
2018-12-16T00:49:49.759Z,53.10
2018-12-16T00:52:18.239Z,56.53
2018-12-16T00:54:47.510Z,58.80
2018-12-16T00:57:18.244Z,48.80
2018-12-16T00:59:46.761Z,57.20
2018-12-16T01:02:24.964Z,53.52
2018-12-16T01:04:53.663Z,61.75
2018-12-16T01:07:22.817Z,59.30
2018-12-16T01:09:51.357Z,57.00
2018-12-16T01:12:19.845Z,59.73
2018-12-16T01:14:48.556Z,57.07
2018-12-16T01:17:17.531Z,61.70
2018-12-16T01:19:46.052Z,56.90
2018-12-16T01:27:14.695Z,51.10
2018-12-16T01:29:43.177Z,60.00
2018-12-16T01:32:11.717Z,66.10
2018-12-16T01:34:40.224Z,58.43
2018-12-16T01:37:08.689Z,59.30
2018-12-16T01:39:37.153Z,69.70
2018-12-16T01:42:05.652Z,61.70
2018-12-16T01:44:34.196Z,72.50
2018-12-16T01:47:02.891Z,51.40
2018-12-16T01:49:32.041Z,59.47
2018-12-16T01:52:00.507Z,56.37
2018-12-16T01:54:29.903Z,50.30
2018-12-16T01:56:58.409Z,57.83
2018-12-16T01:59:27.713Z,71.07
2018-12-16T02:01:56.172Z,49.73
2018-12-16T02:04:25.772Z,50.20
2018-12-16T02:06:54.259Z,45.57
2018-12-16T02:09:23.679Z,50.10
2018-12-16T02:11:52.793Z,59.57
2018-12-16T02:14:21.261Z,48.17
2018-12-16T02:16:49.756Z,63.67
2018-12-16T02:19:20.022Z,38.93
2018-12-16T02:21:49.315Z,48.23
2018-12-16T02:24:17.783Z,51.37
2018-12-16T02:26:46.436Z,49.70
2018-12-16T02:29:17.356Z,49.83
2018-12-16T02:31:47.383Z,51.67
2018-12-16T02:34:17.637Z,52.83
2018-12-16T02:36:46.120Z,51.57
2018-12-16T02:42:53.917Z,44.67
2018-12-16T02:45:23.218Z,51.63
2018-12-16T02:47:57.259Z,43.17
2018-12-16T02:50:25.727Z,42.90
2018-12-16T02:52:54.203Z,54.43
2018-12-16T02:55:23.668Z,48.13
2018-12-16T02:57:52.145Z,45.17
2018-12-16T03:00:21.386Z,52.35
2018-12-16T03:02:50.865Z,42.10
2018-12-16T03:05:19.383Z,44.84
2018-12-16T03:07:47.861Z,43.83
2018-12-16T03:10:18.609Z,47.35
2018-12-16T03:12:47.506Z,42.23
2018-12-16T03:15:17.588Z,48.22
2018-12-16T03:17:46.923Z,46.30
2018-12-16T03:25:14.346Z,44.95
2018-12-16T03:27:42.875Z,46.67
2018-12-16T03:30:11.601Z,42.27
2018-12-16T03:32:40.253Z,43.17
2018-12-16T03:35:08.962Z,42.27
2018-12-16T03:37:38.639Z,41.97
2018-12-16T03:40:07.668Z,43.70
2018-12-16T03:42:36.152Z,42.30
2018-12-16T03:45:05.512Z,53.13
2018-12-16T03:47:34.624Z,39.73
2018-12-16T03:50:03.124Z,41.30
2018-12-16T03:52:32.311Z,39.00
2018-12-16T03:55:01.479Z,38.50
2018-12-16T03:57:30.834Z,39.20
2018-12-16T03:59:59.300Z,40.10
2018-12-16T04:02:28.334Z,44.00
2018-12-16T04:04:57.798Z,45.67
2018-12-16T04:07:26.289Z,43.13
2018-12-16T04:09:54.812Z,39.43
2018-12-16T04:12:23.680Z,38.75
2018-12-16T04:14:53.011Z,39.50
2018-12-16T04:17:22.218Z,39.23
2018-12-16T04:19:51.004Z,39.70
2018-12-16T04:22:20.327Z,44.25
2018-12-16T04:24:48.825Z,34.10
2018-12-16T04:27:17.480Z,39.92
2018-12-16T04:29:46.064Z,44.70
2018-12-16T04:36:00.532Z,34.83
2018-12-16T04:38:28.996Z,34.50
2018-12-16T04:40:58.831Z,35.20
2018-12-16T04:43:29.247Z,37.67
2018-12-16T04:45:57.731Z,35.93
2018-12-16T04:48:26.221Z,40.13
2018-12-16T04:50:54.847Z,38.67
2018-12-16T04:53:23.429Z,34.77
2018-12-16T04:55:51.914Z,38.20
2018-12-16T04:58:20.931Z,39.73
2018-12-16T05:00:49.394Z,41.60
2018-12-16T05:03:18.308Z,35.50
2018-12-16T05:05:48.396Z,35.63
2018-12-16T05:08:17.583Z,39.70
2018-12-16T05:10:46.984Z,37.87
2018-12-16T05:18:15.751Z,31.67
2018-12-16T05:20:44.217Z,35.50
2018-12-16T05:23:12.709Z,34.90
2018-12-16T05:25:41.268Z,36.90
2018-12-16T05:28:09.771Z,34.63
2018-12-16T05:30:39.715Z,30.27
2018-12-16T05:33:08.216Z,33.10
2018-12-16T05:35:36.876Z,31.90
2018-12-16T05:38:08.478Z,32.25
2018-12-16T05:40:37.263Z,35.73
2018-12-16T05:43:05.738Z,39.20
2018-12-16T05:45:34.345Z,34.65
2018-12-16T05:48:02.967Z,51.90
2018-12-16T05:50:32.335Z,79.10
2018-12-16T05:53:01.035Z,50.80
2018-12-16T05:55:30.690Z,36.50
2018-12-16T05:57:59.397Z,33.47
2018-12-16T06:00:27.940Z,37.60
2018-12-16T06:02:56.867Z,37.10
2018-12-16T06:05:26.136Z,34.13
2018-12-16T06:07:54.619Z,31.30
2018-12-16T06:10:24.329Z,34.73
2018-12-16T06:12:56.076Z,26.87
2018-12-16T06:15:24.592Z,30.93
2018-12-16T06:17:53.136Z,27.63
2018-12-16T06:20:21.945Z,27.00
2018-12-16T06:22:50.569Z,30.10
2018-12-16T06:25:19.668Z,26.95
2018-12-16T06:27:48.163Z,29.77
2018-12-16T06:30:18.820Z,27.72
2018-12-16T06:32:47.329Z,28.60
2018-12-16T06:35:17.520Z,28.18
2018-12-16T06:37:46.059Z,25.70
2018-12-16T06:43:51.367Z,31.60
2018-12-16T06:46:20.753Z,26.83
2018-12-16T06:48:49.228Z,24.87
2018-12-16T06:51:17.741Z,30.70
2018-12-16T06:53:46.648Z,26.67
2018-12-16T07:06:07.951Z,22.53
2018-12-16T07:08:36.585Z,29.63
2018-12-16T07:11:05.623Z,28.17
2018-12-16T07:13:34.148Z,23.52
2018-12-16T07:16:02.636Z,31.63
2018-12-16T07:18:31.119Z,28.50
2018-12-16T07:20:59.671Z,31.60
2018-12-16T07:23:28.150Z,29.60
2018-12-16T07:25:57.701Z,33.93
2018-12-16T07:28:27.185Z,31.63
2018-12-16T07:30:55.741Z,29.13
2018-12-16T07:33:24.428Z,33.43
2018-12-16T07:35:52.913Z,37.23
2018-12-16T07:38:21.428Z,28.42
2018-12-16T07:40:51.420Z,27.13
2018-12-16T07:43:20.263Z,39.80
2018-12-16T07:45:49.592Z,29.50
2018-12-16T07:48:18.499Z,35.20
2018-12-16T07:50:47.442Z,24.03
2018-12-16T07:53:17.728Z,27.32
2018-12-16T07:55:46.994Z,24.97
2018-12-16T07:58:19.101Z,26.27
2018-12-16T08:00:47.976Z,29.20
2018-12-16T08:03:19.737Z,30.65
2018-12-16T08:05:48.240Z,31.73
2018-12-16T08:08:19.846Z,27.60
2018-12-16T08:10:48.429Z,26.67
2018-12-16T08:13:19.183Z,26.10
2018-12-16T08:15:47.772Z,29.33
2018-12-16T08:18:18.685Z,28.05
2018-12-16T08:20:47.239Z,27.77
2018-12-16T08:23:17.436Z,28.52
2018-12-16T08:25:48.276Z,29.17
2018-12-16T08:28:17.576Z,22.70
2018-12-16T08:30:46.176Z,29.73
2018-12-16T08:33:18.971Z,26.27
2018-12-16T08:35:47.461Z,23.45
2018-12-16T08:38:17.343Z,25.40
2018-12-16T08:40:45.861Z,20.40
2018-12-16T08:48:14.479Z,21.10
2018-12-16T08:50:42.968Z,33.80
2018-12-16T08:53:11.478Z,36.33
2018-12-16T08:55:40.992Z,24.50
2018-12-16T08:58:09.477Z,24.05
2018-12-16T09:00:38.132Z,23.80
2018-12-16T09:03:08.880Z,24.20
2018-12-16T09:05:37.625Z,27.87
2018-12-16T09:08:07.479Z,31.10
2018-12-16T09:10:36.831Z,28.70
2018-12-16T09:13:05.370Z,27.67
2018-12-16T09:15:33.968Z,28.15
2018-12-16T09:18:02.487Z,27.98
2018-12-16T09:20:31.017Z,29.13
2018-12-16T09:23:00.423Z,27.70
2018-12-16T09:25:29.155Z,23.80
2018-12-16T09:27:57.764Z,23.10
2018-12-16T09:30:26.861Z,26.62
2018-12-16T09:32:55.816Z,23.83
2018-12-16T09:35:25.484Z,22.60
2018-12-16T09:37:54.054Z,23.87
2018-12-16T09:40:23.517Z,35.07
2018-12-16T09:42:53.151Z,32.63
2018-12-16T09:45:22.432Z,28.80
2018-12-16T09:47:51.475Z,24.97
2018-12-16T09:50:20.829Z,25.07
2018-12-16T09:52:49.328Z,29.10
2018-12-16T09:55:18.061Z,23.57
2018-12-16T09:57:46.710Z,26.70
2018-12-16T10:00:18.142Z,23.20
2018-12-16T10:02:46.823Z,23.33
2018-12-16T10:05:17.441Z,35.33
2018-12-16T10:07:46.000Z,28.57
2018-12-16T10:14:14.868Z,29.43
2018-12-16T10:16:43.856Z,24.00
2018-12-16T10:19:12.315Z,22.32
2018-12-16T10:21:40.878Z,29.37
2018-12-16T10:24:09.934Z,26.50
2018-12-16T10:26:39.277Z,29.17
2018-12-16T10:29:08.240Z,23.50
2018-12-16T10:31:37.582Z,24.37
2018-12-16T10:34:06.063Z,24.37
2018-12-16T10:36:35.184Z,25.48
2018-12-16T10:39:05.070Z,25.97
2018-12-16T10:41:34.197Z,31.40
2018-12-16T10:44:03.200Z,27.27
2018-12-16T10:46:31.821Z,29.37
2018-12-16T10:49:04.764Z,24.53
2018-12-16T10:51:30.884Z,25.08
2018-12-16T10:53:59.401Z,23.35
2018-12-16T10:56:27.918Z,31.03
2018-12-16T10:58:56.751Z,29.10
2018-12-16T11:01:29.492Z,33.67
2018-12-16T11:03:58.346Z,39.17
2018-12-16T11:06:26.820Z,29.40
2018-12-16T11:08:55.895Z,37.63
2018-12-16T11:11:26.086Z,33.03
2018-12-16T11:13:54.560Z,36.48
2018-12-16T11:16:23.652Z,27.10
2018-12-16T11:18:52.234Z,28.67
2018-12-16T11:21:21.775Z,26.75
2018-12-16T11:23:53.738Z,26.23
2018-12-16T11:26:21.466Z,21.60
2018-12-16T11:28:51.525Z,22.10
2018-12-16T11:31:20.047Z,26.77
2018-12-16T11:33:48.639Z,21.90
2018-12-16T11:36:19.433Z,23.80
2018-12-16T11:38:48.404Z,22.43
2018-12-16T11:41:18.359Z,18.63
2018-12-16T11:43:47.100Z,23.10
2018-12-16T11:46:17.465Z,23.75
2018-12-16T11:48:45.974Z,22.47
2018-12-16T11:55:00.536Z,17.63
2018-12-16T11:57:29.004Z,20.50
2018-12-16T11:59:57.501Z,18.55
2018-12-16T12:02:32.674Z,25.08
2018-12-16T12:04:56.864Z,20.73
2018-12-16T12:07:25.352Z,20.90
2018-12-16T12:09:53.912Z,20.93
2018-12-16T12:12:22.386Z,21.42
2018-12-16T12:14:53.210Z,21.00
2018-12-16T12:17:23.516Z,19.87
2018-12-16T12:19:52.606Z,22.87
2018-12-16T12:22:21.088Z,18.52
2018-12-16T12:24:49.594Z,22.80
2018-12-16T12:27:18.061Z,16.50
2018-12-16T12:29:47.996Z,22.97
2018-12-16T12:32:17.372Z,17.62
2018-12-16T12:34:46.036Z,24.80
2018-12-16T12:42:16.948Z,20.40
2018-12-16T12:44:45.460Z,28.07
2018-12-16T12:52:15.513Z,26.93
2018-12-16T12:54:43.996Z,22.80
2018-12-16T12:57:12.472Z,23.03
2018-12-16T12:59:41.183Z,24.70
2018-12-16T13:02:09.689Z,25.10
2018-12-16T13:04:39.073Z,25.33
2018-12-16T13:07:07.756Z,28.63
2018-12-16T13:09:36.261Z,22.00
2018-12-16T13:12:05.453Z,30.83
2018-12-16T13:14:34.088Z,26.73
2018-12-16T13:17:03.723Z,23.97
2018-12-16T13:19:34.326Z,25.20
2018-12-16T13:22:03.641Z,24.70
2018-12-16T13:24:32.579Z,27.53
2018-12-16T13:27:01.190Z,26.93
2018-12-16T13:29:30.586Z,30.63
2018-12-16T13:31:59.132Z,32.50
2018-12-16T13:34:28.256Z,30.93
2018-12-16T13:36:57.016Z,30.73
2018-12-16T13:39:27.020Z,39.75
2018-12-16T13:41:55.780Z,36.50
2018-12-16T13:44:24.449Z,31.27
2018-12-16T13:46:53.045Z,36.87
2018-12-16T13:49:22.102Z,34.77
2018-12-16T13:51:51.201Z,40.10
2018-12-16T13:54:20.624Z,35.23
2018-12-16T13:56:49.113Z,31.00
2018-12-16T13:59:17.836Z,32.00
2018-12-16T14:01:46.366Z,27.17
2018-12-16T14:09:17.633Z,37.33
2018-12-16T14:11:47.795Z,39.17
2018-12-16T14:14:17.584Z,30.65
2018-12-16T14:16:46.613Z,36.40
2018-12-16T14:19:18.336Z,35.17
2018-12-16T14:21:48.687Z,30.13
2018-12-16T14:24:17.862Z,34.27
2018-12-16T14:26:46.744Z,33.65
2018-12-16T14:34:17.035Z,33.50
2018-12-16T14:36:47.503Z,35.97
2018-12-16T14:39:17.768Z,38.88
2018-12-16T14:41:46.301Z,33.63
2018-12-16T14:49:19.401Z,42.93
2018-12-16T14:51:48.024Z,32.87
2018-12-16T14:54:17.751Z,44.93
2018-12-16T14:56:47.371Z,33.43
2018-12-16T14:59:17.341Z,33.58
2018-12-16T15:01:45.856Z,31.27
2018-12-16T15:09:15.612Z,30.10
2018-12-16T15:11:45.969Z,33.33
2018-12-16T15:19:16.828Z,30.70
2018-12-16T15:21:45.981Z,30.83
2018-12-16T15:34:09.226Z,44.07
2018-12-16T15:36:38.448Z,38.90
2018-12-16T15:39:09.796Z,35.40
2018-12-16T15:41:38.424Z,40.10
2018-12-16T15:44:06.936Z,37.00
2018-12-16T15:46:35.770Z,36.07
2018-12-16T15:49:05.821Z,36.80
2018-12-16T15:51:34.371Z,33.55
2018-12-16T15:54:03.455Z,40.63
2018-12-16T15:56:32.730Z,44.27
2018-12-16T15:59:01.867Z,32.13
2018-12-16T16:01:30.700Z,31.03
2018-12-16T16:03:59.653Z,36.97
2018-12-16T16:06:28.143Z,35.90
2018-12-16T16:08:57.470Z,41.47
2018-12-16T16:11:26.085Z,41.10
2018-12-16T16:13:55.693Z,49.77
2018-12-16T16:16:25.039Z,41.33
2018-12-16T16:18:53.808Z,40.50
2018-12-16T16:21:23.551Z,57.48
2018-12-16T16:23:52.715Z,62.70
2018-12-16T16:26:23.154Z,50.83
2018-12-16T16:28:51.628Z,42.63
2018-12-16T16:31:20.486Z,64.33
2018-12-16T16:33:50.044Z,45.87
2018-12-16T16:36:20.314Z,45.65
2018-12-16T16:38:49.097Z,48.00
2018-12-16T16:41:17.919Z,52.37
2018-12-16T16:43:47.290Z,51.13
2018-12-16T16:46:18.258Z,45.60
2018-12-16T16:48:47.009Z,42.70
2018-12-16T16:51:18.381Z,47.90
2018-12-16T16:53:47.675Z,45.47
2018-12-16T16:56:23.038Z,38.27
2018-12-16T16:58:49.204Z,42.77
2018-12-16T17:01:18.106Z,50.60
2018-12-16T17:03:46.897Z,46.93
2018-12-16T17:06:17.496Z,44.35
2018-12-16T17:08:46.760Z,44.40
2018-12-16T17:11:18.020Z,44.80
2018-12-16T17:13:47.061Z,46.53
2018-12-16T17:20:12.393Z,46.80
2018-12-16T17:22:41.751Z,49.20
2018-12-16T17:25:10.456Z,52.10
2018-12-16T17:27:39.991Z,67.17
2018-12-16T17:30:12.388Z,48.87
2018-12-16T17:32:41.826Z,44.03
2018-12-16T17:35:10.544Z,55.43
2018-12-16T17:37:38.997Z,57.90
2018-12-16T17:40:09.526Z,58.63
2018-12-16T17:42:38.598Z,50.77
2018-12-16T17:45:09.931Z,53.90
2018-12-16T17:47:38.565Z,48.15
2018-12-16T17:50:08.197Z,52.97
2018-12-16T17:52:37.461Z,39.80
2018-12-16T17:55:07.147Z,39.88
2018-12-16T17:57:36.065Z,45.97
2018-12-16T18:00:07.753Z,39.20
2018-12-16T18:02:37.134Z,44.33
2018-12-16T18:05:08.260Z,45.77
2018-12-16T18:07:36.881Z,44.20
2018-12-16T18:10:06.944Z,54.77
2018-12-16T18:12:35.758Z,47.93
2018-12-16T18:15:05.997Z,45.93
2018-12-16T18:17:34.480Z,55.35
2018-12-16T18:20:04.389Z,60.20
2018-12-16T18:22:33.232Z,49.47
2018-12-16T18:25:02.141Z,50.10
2018-12-16T18:27:31.148Z,49.53
2018-12-16T18:30:00.932Z,48.10
2018-12-16T18:32:30.241Z,50.17
2018-12-16T18:34:59.434Z,46.27
2018-12-16T18:37:28.337Z,45.50
2018-12-16T18:39:56.931Z,43.27
2018-12-16T18:42:25.460Z,47.73
2018-12-16T18:44:54.562Z,45.23
2018-12-16T18:47:23.497Z,45.58
2018-12-16T18:49:52.155Z,33.83
2018-12-16T18:52:21.746Z,35.80
2018-12-16T18:54:51.278Z,37.87
2018-12-16T18:57:19.777Z,41.43
2018-12-16T18:59:49.782Z,48.33
2018-12-16T19:02:18.239Z,52.70
2018-12-16T19:04:46.717Z,41.60
2018-12-16T19:13:01.352Z,52.40
2018-12-16T19:15:30.105Z,52.27
2018-12-16T19:17:59.342Z,46.20
2018-12-16T19:20:27.857Z,48.67
2018-12-16T19:22:57.168Z,49.38
2018-12-16T19:25:25.700Z,49.80
2018-12-16T19:27:54.237Z,50.43
2018-12-16T19:30:23.522Z,50.33
2018-12-16T19:32:52.128Z,47.13
2018-12-16T19:35:21.413Z,57.27
2018-12-16T19:37:50.462Z,54.87
2018-12-16T19:40:19.095Z,62.38
2018-12-16T19:42:47.693Z,74.30
2018-12-16T19:45:17.432Z,61.58
2018-12-16T19:47:49.651Z,70.47
2018-12-16T19:50:17.433Z,58.83
2018-12-16T19:52:46.308Z,53.17
2018-12-16T20:00:15.438Z,56.20
2018-12-16T20:02:44.689Z,60.50
2018-12-16T20:05:28.620Z,51.20
2018-12-16T20:07:57.316Z,54.33
2018-12-16T20:10:25.813Z,48.70
2018-12-16T20:12:54.468Z,75.40
2018-12-16T20:15:23.483Z,91.90
2018-12-16T20:17:53.661Z,91.87
2018-12-16T20:20:22.500Z,67.42
2018-12-16T20:22:51.676Z,63.83
2018-12-16T20:25:21.160Z,61.90
2018-12-16T20:27:50.173Z,59.23
2018-12-16T20:30:18.876Z,46.02
2018-12-16T20:32:48.700Z,45.93
2018-12-16T20:35:18.429Z,47.78
2018-12-16T20:37:47.764Z,47.33
2018-12-16T20:40:17.567Z,45.28
2018-12-16T20:42:48.096Z,51.70
2018-12-16T20:45:17.525Z,52.10
2018-12-16T20:47:46.529Z,50.40
2018-12-16T20:55:13.565Z,46.67
2018-12-16T20:57:42.320Z,37.80
2018-12-16T21:00:11.987Z,43.73
2018-12-16T21:02:40.868Z,39.33
2018-12-16T21:05:09.644Z,39.27
2018-12-16T21:07:39.428Z,37.43
2018-12-16T21:10:08.656Z,36.63
2018-12-16T21:12:43.440Z,39.60
2018-12-16T21:15:17.812Z,33.28
2018-12-16T21:17:53.642Z,37.87
2018-12-16T21:20:22.620Z,35.13
2018-12-16T21:22:51.118Z,38.17
2018-12-16T21:25:20.370Z,35.30
2018-12-16T21:27:48.990Z,40.27
2018-12-16T21:30:18.183Z,38.92
2018-12-16T21:32:46.660Z,38.33
2018-12-16T21:45:08.236Z,46.80
2018-12-16T21:47:36.750Z,41.20
2018-12-16T21:50:07.141Z,33.37
2018-12-16T21:52:36.977Z,32.90
2018-12-16T21:55:07.414Z,33.65
2018-12-16T21:57:35.921Z,35.90
2018-12-16T22:00:07.660Z,33.02
2018-12-16T22:02:37.336Z,36.77
2018-12-16T22:05:10.097Z,32.03
2018-12-16T22:07:38.571Z,30.90
2018-12-16T22:10:08.095Z,31.63
2018-12-16T22:12:36.617Z,35.30
2018-12-16T22:15:05.638Z,31.23
2018-12-16T22:17:34.130Z,32.70
2018-12-16T22:20:04.285Z,34.23
2018-12-16T22:22:32.806Z,31.60
2018-12-16T22:25:01.739Z,33.70
2018-12-16T22:27:30.837Z,35.50
2018-12-16T22:30:00.388Z,37.20
2018-12-16T22:32:29.493Z,25.88
2018-12-16T22:34:58.082Z,32.27
2018-12-16T22:37:27.660Z,28.10
2018-12-16T22:39:56.671Z,31.10
2018-12-16T22:42:25.204Z,30.63
2018-12-16T22:44:55.062Z,32.73
2018-12-16T22:47:24.858Z,31.62
2018-12-16T22:49:53.711Z,27.65
2018-12-16T22:52:22.173Z,27.03
2018-12-16T22:54:50.648Z,31.60
2018-12-16T22:57:19.914Z,31.05
2018-12-16T22:59:48.468Z,33.42
2018-12-16T23:02:17.990Z,30.60
2018-12-16T23:04:46.830Z,30.80
2018-12-16T23:08:02.007Z,36.68
2018-12-16T23:10:30.536Z,40.50
2018-12-16T23:12:59.645Z,39.23
2018-12-16T23:15:29.454Z,39.60
2018-12-16T23:17:59.898Z,36.07
2018-12-16T23:20:30.419Z,39.05
2018-12-16T23:22:59.480Z,35.97
2018-12-16T23:25:28.080Z,30.63
2018-12-16T23:27:56.732Z,34.27
2018-12-16T23:30:25.340Z,35.52
2018-12-16T23:32:53.980Z,34.70
2018-12-16T23:35:22.456Z,36.65
2018-12-16T23:37:51.714Z,42.20
2018-12-16T23:40:21.660Z,33.50
2018-12-16T23:42:50.760Z,30.20
2018-12-16T23:45:19.711Z,28.80
2018-12-16T23:47:48.597Z,38.77
2018-12-16T23:50:17.884Z,36.92
2018-12-16T23:52:46.348Z,36.27
